sensor_id;sensor_type;location;lat;lon;timestamp;temperature;humidity
75281;HTU21D;63874;47.230;39.620;2022-11-14T00:02:04;6.99;86.67
75281;HTU21D;63874;47.230;39.620;2022-11-14T00:04:49;6.97;86.61
75281;HTU21D;63874;47.230;39.620;2022-11-14T00:07:34;6.95;86.61
75281;HTU21D;63874;47.230;39.620;2022-11-14T00:10:18;6.89;86.57
75281;HTU21D;63874;47.230;39.620;2022-11-14T00:13:03;6.85;86.58
75281;HTU21D;63874;47.230;39.620;2022-11-14T00:15:49;6.81;86.61
75281;HTU21D;63874;47.230;39.620;2022-11-14T00:18:34;6.78;86.57
75281;HTU21D;63874;47.230;39.620;2022-11-14T00:21:18;6.71;86.64
75281;HTU21D;63874;47.230;39.620;2022-11-14T00:24:03;6.66;86.77
75281;HTU21D;63874;47.230;39.620;2022-11-14T00:26:47;6.67;86.68
75281;HTU21D;63874;47.230;39.620;2022-11-14T00:29:32;6.66;86.67
75281;HTU21D;63874;47.230;39.620;2022-11-14T00:32:17;6.61;86.67
75281;HTU21D;63874;47.230;39.620;2022-11-14T00:35:01;6.61;86.62
75281;HTU21D;63874;47.230;39.620;2022-11-14T00:37:48;6.59;86.63
75281;HTU21D;63874;47.230;39.620;2022-11-14T00:40:33;6.57;86.59
75281;HTU21D;63874;47.230;39.620;2022-11-14T00:43:17;6.55;86.59
75281;HTU21D;63874;47.230;39.620;2022-11-14T00:46:02;6.53;86.58
75281;HTU21D;63874;47.230;39.620;2022-11-14T00:48:46;6.52;86.53
75281;HTU21D;63874;47.230;39.620;2022-11-14T00:51:31;6.49;86.53
75281;HTU21D;63874;47.230;39.620;2022-11-14T00:54:15;6.49;86.36
75281;HTU21D;63874;47.230;39.620;2022-11-14T00:57:00;6.48;86.45
75281;HTU21D;63874;47.230;39.620;2022-11-14T00:59:44;6.48;86.32
75281;HTU21D;63874;47.230;39.620;2022-11-14T01:02:29;6.45;86.32
75281;HTU21D;63874;47.230;39.620;2022-11-14T01:05:13;6.42;86.27
75281;HTU21D;63874;47.230;39.620;2022-11-14T01:07:58;6.41;86.29
75281;HTU21D;63874;47.230;39.620;2022-11-14T01:10:47;6.39;86.21
75281;HTU21D;63874;47.230;39.620;2022-11-14T01:13:31;6.37;86.18
75281;HTU21D;63874;47.230;39.620;2022-11-14T01:16:16;6.34;86.19
75281;HTU21D;63874;47.230;39.620;2022-11-14T01:19:01;6.31;86.19
75281;HTU21D;63874;47.230;39.620;2022-11-14T01:21:48;6.29;86.16
75281;HTU21D;63874;47.230;39.620;2022-11-14T01:24:33;6.31;85.90
75281;HTU21D;63874;47.230;39.620;2022-11-14T01:27:17;6.27;85.93
75281;HTU21D;63874;47.230;39.620;2022-11-14T01:30:04;6.27;85.91
75281;HTU21D;63874;47.230;39.620;2022-11-14T01:32:49;6.26;85.88
75281;HTU21D;63874;47.230;39.620;2022-11-14T01:35:35;6.21;85.90
75281;HTU21D;63874;47.230;39.620;2022-11-14T01:38:19;6.16;85.84
75281;HTU21D;63874;47.230;39.620;2022-11-14T01:41:08;6.12;85.85
75281;HTU21D;63874;47.230;39.620;2022-11-14T01:43:52;6.08;85.91
75281;HTU21D;63874;47.230;39.620;2022-11-14T01:46:39;6.05;85.75
75281;HTU21D;63874;47.230;39.620;2022-11-14T01:49:28;5.98;85.55
75281;HTU21D;63874;47.230;39.620;2022-11-14T01:52:20;5.85;85.49
75281;HTU21D;63874;47.230;39.620;2022-11-14T01:55:07;5.74;85.48
75281;HTU21D;63874;47.230;39.620;2022-11-14T01:57:55;5.66;85.50
75281;HTU21D;63874;47.230;39.620;2022-11-14T02:00:41;5.55;85.55
75281;HTU21D;63874;47.230;39.620;2022-11-14T02:03:26;5.43;85.64
75281;HTU21D;63874;47.230;39.620;2022-11-14T02:06:13;5.36;85.95
75281;HTU21D;63874;47.230;39.620;2022-11-14T02:09:02;5.32;86.07
75281;HTU21D;63874;47.230;39.620;2022-11-14T02:11:47;5.25;86.14
75281;HTU21D;63874;47.230;39.620;2022-11-14T02:14:33;5.23;86.19
75281;HTU21D;63874;47.230;39.620;2022-11-14T02:17:19;5.19;86.41
75281;HTU21D;63874;47.230;39.620;2022-11-14T02:22:54;5.15;86.50
75281;HTU21D;63874;47.230;39.620;2022-11-14T02:25:39;5.07;86.57
75281;HTU21D;63874;47.230;39.620;2022-11-14T02:28:26;5.02;86.75
75281;HTU21D;63874;47.230;39.620;2022-11-14T02:31:11;5.05;87.01
75281;HTU21D;63874;47.230;39.620;2022-11-14T02:33:56;5.11;86.99
75281;HTU21D;63874;47.230;39.620;2022-11-14T02:36:42;5.16;86.75
75281;HTU21D;63874;47.230;39.620;2022-11-14T02:39:27;5.19;86.52
75281;HTU21D;63874;47.230;39.620;2022-11-14T02:42:11;5.20;86.45
75281;HTU21D;63874;47.230;39.620;2022-11-14T02:44:56;5.23;86.23
75281;HTU21D;63874;47.230;39.620;2022-11-14T02:47:40;5.23;86.12
75281;HTU21D;63874;47.230;39.620;2022-11-14T02:50:28;5.23;86.00
75281;HTU21D;63874;47.230;39.620;2022-11-14T02:53:12;5.24;85.75
75281;HTU21D;63874;47.230;39.620;2022-11-14T02:55:56;5.21;85.76
75281;HTU21D;63874;47.230;39.620;2022-11-14T02:58:41;5.18;85.70
75281;HTU21D;63874;47.230;39.620;2022-11-14T03:01:25;5.17;85.61
75281;HTU21D;63874;47.230;39.620;2022-11-14T03:04:10;5.17;85.56
75281;HTU21D;63874;47.230;39.620;2022-11-14T03:06:55;5.13;85.63
75281;HTU21D;63874;47.230;39.620;2022-11-14T03:09:39;5.09;85.72
75281;HTU21D;63874;47.230;39.620;2022-11-14T03:12:23;5.09;85.70
75281;HTU21D;63874;47.230;39.620;2022-11-14T03:15:08;5.09;85.74
75281;HTU21D;63874;47.230;39.620;2022-11-14T03:17:53;5.07;85.72
75281;HTU21D;63874;47.230;39.620;2022-11-14T03:20:38;5.09;85.60
75281;HTU21D;63874;47.230;39.620;2022-11-14T03:23:22;5.09;85.44
75281;HTU21D;63874;47.230;39.620;2022-11-14T03:26:08;5.07;85.47
75281;HTU21D;63874;47.230;39.620;2022-11-14T03:28:53;5.05;85.37
75281;HTU21D;63874;47.230;39.620;2022-11-14T03:31:40;5.04;85.32
75281;HTU21D;63874;47.230;39.620;2022-11-14T03:34:28;5.05;85.00
75281;HTU21D;63874;47.230;39.620;2022-11-14T03:37:13;5.06;84.81
75281;HTU21D;63874;47.230;39.620;2022-11-14T03:39:57;5.03;84.79
75281;HTU21D;63874;47.230;39.620;2022-11-14T03:42:42;5.05;84.50
75281;HTU21D;63874;47.230;39.620;2022-11-14T03:45:26;5.05;84.30
75281;HTU21D;63874;47.230;39.620;2022-11-14T03:48:11;5.03;84.29
75281;HTU21D;63874;47.230;39.620;2022-11-14T03:50:56;5.05;83.87
75281;HTU21D;63874;47.230;39.620;2022-11-14T03:53:40;4.97;84.00
75281;HTU21D;63874;47.230;39.620;2022-11-14T03:56:24;4.93;84.11
75281;HTU21D;63874;47.230;39.620;2022-11-14T03:59:09;4.92;84.08
75281;HTU21D;63874;47.230;39.620;2022-11-14T04:01:53;4.90;84.10
75281;HTU21D;63874;47.230;39.620;2022-11-14T04:04:38;4.84;84.17
75281;HTU21D;63874;47.230;39.620;2022-11-14T04:07:24;4.81;84.25
75281;HTU21D;63874;47.230;39.620;2022-11-14T04:10:09;4.79;84.32
75281;HTU21D;63874;47.230;39.620;2022-11-14T04:12:53;4.77;84.29
75281;HTU21D;63874;47.230;39.620;2022-11-14T04:15:38;4.77;84.25
75281;HTU21D;63874;47.230;39.620;2022-11-14T04:18:23;4.78;84.22
75281;HTU21D;63874;47.230;39.620;2022-11-14T04:21:08;4.79;84.10
75281;HTU21D;63874;47.230;39.620;2022-11-14T04:23:53;4.83;84.10
75281;HTU21D;63874;47.230;39.620;2022-11-14T04:26:37;4.78;83.43
75281;HTU21D;63874;47.230;39.620;2022-11-14T04:29:21;4.62;83.20
75281;HTU21D;63874;47.230;39.620;2022-11-14T04:32:06;4.47;83.07
75281;HTU21D;63874;47.230;39.620;2022-11-14T04:34:51;4.33;83.19
75281;HTU21D;63874;47.230;39.620;2022-11-14T04:37:35;4.22;83.31
75281;HTU21D;63874;47.230;39.620;2022-11-14T04:40:21;4.13;83.57
75281;HTU21D;63874;47.230;39.620;2022-11-14T04:43:06;4.03;83.81
75281;HTU21D;63874;47.230;39.620;2022-11-14T04:45:50;4.05;84.37
75281;HTU21D;63874;47.230;39.620;2022-11-14T04:48:34;4.10;84.56
75281;HTU21D;63874;47.230;39.620;2022-11-14T04:51:19;4.19;84.81
75281;HTU21D;63874;47.230;39.620;2022-11-14T04:54:03;4.27;84.87
75281;HTU21D;63874;47.230;39.620;2022-11-14T04:56:48;4.41;84.86
75281;HTU21D;63874;47.230;39.620;2022-11-14T04:59:32;4.57;84.71
75281;HTU21D;63874;47.230;39.620;2022-11-14T05:02:17;4.72;84.04
75281;HTU21D;63874;47.230;39.620;2022-11-14T05:05:01;4.86;83.71
75281;HTU21D;63874;47.230;39.620;2022-11-14T05:07:46;4.97;83.23
75281;HTU21D;63874;47.230;39.620;2022-11-14T05:10:30;5.07;83.00
75281;HTU21D;63874;47.230;39.620;2022-11-14T05:13:15;5.18;81.99
75281;HTU21D;63874;47.230;39.620;2022-11-14T05:16:00;5.24;81.23
75281;HTU21D;63874;47.230;39.620;2022-11-14T05:18:44;5.27;81.28
75281;HTU21D;63874;47.230;39.620;2022-11-14T05:21:29;5.33;80.38
75281;HTU21D;63874;47.230;39.620;2022-11-14T05:24:13;5.37;79.41
75281;HTU21D;63874;47.230;39.620;2022-11-14T05:26:58;5.40;79.56
75281;HTU21D;63874;47.230;39.620;2022-11-14T05:29:42;5.40;79.26
75281;HTU21D;63874;47.230;39.620;2022-11-14T05:32:26;5.43;79.21
75281;HTU21D;63874;47.230;39.620;2022-11-14T05:35:11;5.48;78.95
75281;HTU21D;63874;47.230;39.620;2022-11-14T05:37:56;5.51;78.57
75281;HTU21D;63874;47.230;39.620;2022-11-14T05:40:40;5.54;78.63
75281;HTU21D;63874;47.230;39.620;2022-11-14T05:43:28;5.60;78.47
75281;HTU21D;63874;47.230;39.620;2022-11-14T05:46:14;5.64;78.53
75281;HTU21D;63874;47.230;39.620;2022-11-14T05:48:59;5.63;78.37
75281;HTU21D;63874;47.230;39.620;2022-11-14T05:51:43;5.67;78.56
75281;HTU21D;63874;47.230;39.620;2022-11-14T05:54:28;5.70;78.37
75281;HTU21D;63874;47.230;39.620;2022-11-14T05:57:15;5.72;78.34
75281;HTU21D;63874;47.230;39.620;2022-11-14T05:59:59;5.77;77.56
75281;HTU21D;63874;47.230;39.620;2022-11-14T06:02:44;5.80;77.60
75281;HTU21D;63874;47.230;39.620;2022-11-14T06:05:29;5.84;77.87
75281;HTU21D;63874;47.230;39.620;2022-11-14T06:08:13;5.90;77.35
75281;HTU21D;63874;47.230;39.620;2022-11-14T06:11:07;5.98;76.72
75281;HTU21D;63874;47.230;39.620;2022-11-14T06:13:52;6.01;77.12
75281;HTU21D;63874;47.230;39.620;2022-11-14T06:16:37;6.08;76.96
75281;HTU21D;63874;47.230;39.620;2022-11-14T06:19:21;6.17;75.61
75281;HTU21D;63874;47.230;39.620;2022-11-14T06:22:06;6.25;75.78
75281;HTU21D;63874;47.230;39.620;2022-11-14T06:24:50;6.30;74.76
75281;HTU21D;63874;47.230;39.620;2022-11-14T06:27:35;6.37;74.22
75281;HTU21D;63874;47.230;39.620;2022-11-14T06:30:19;6.38;74.80
75281;HTU21D;63874;47.230;39.620;2022-11-14T06:33:04;6.43;74.67
75281;HTU21D;63874;47.230;39.620;2022-11-14T06:35:48;6.51;74.09
75281;HTU21D;63874;47.230;39.620;2022-11-14T06:38:35;6.57;74.51
75281;HTU21D;63874;47.230;39.620;2022-11-14T06:41:21;6.64;74.15
75281;HTU21D;63874;47.230;39.620;2022-11-14T06:44:07;6.71;73.67
75281;HTU21D;63874;47.230;39.620;2022-11-14T06:46:51;6.74;73.90
75281;HTU21D;63874;47.230;39.620;2022-11-14T06:49:36;6.81;74.31
75281;HTU21D;63874;47.230;39.620;2022-11-14T06:52:20;6.93;74.23
75281;HTU21D;63874;47.230;39.620;2022-11-14T06:55:05;7.02;74.14
75281;HTU21D;63874;47.230;39.620;2022-11-14T06:57:55;7.14;73.31
75281;HTU21D;63874;47.230;39.620;2022-11-14T07:00:40;7.23;72.69
75281;HTU21D;63874;47.230;39.620;2022-11-14T07:03:24;7.30;72.18
75281;HTU21D;63874;47.230;39.620;2022-11-14T07:06:09;7.37;71.10
75281;HTU21D;63874;47.230;39.620;2022-11-14T07:08:55;7.33;72.52
75281;HTU21D;63874;47.230;39.620;2022-11-14T07:11:40;7.31;72.45
75281;HTU21D;63874;47.230;39.620;2022-11-14T07:14:25;7.39;72.23
75281;HTU21D;63874;47.230;39.620;2022-11-14T07:17:11;7.48;70.09
75281;HTU21D;63874;47.230;39.620;2022-11-14T07:19:56;7.55;69.25
75281;HTU21D;63874;47.230;39.620;2022-11-14T07:22:40;7.61;69.53
75281;HTU21D;63874;47.230;39.620;2022-11-14T07:25:25;7.62;70.36
75281;HTU21D;63874;47.230;39.620;2022-11-14T07:28:11;7.71;69.25
75281;HTU21D;63874;47.230;39.620;2022-11-14T07:30:56;7.75;69.79
75281;HTU21D;63874;47.230;39.620;2022-11-14T07:33:41;7.85;69.05
75281;HTU21D;63874;47.230;39.620;2022-11-14T07:36:26;7.90;69.06
75281;HTU21D;63874;47.230;39.620;2022-11-14T07:39:10;7.93;68.81
75281;HTU21D;63874;47.230;39.620;2022-11-14T07:41:54;7.96;69.09
75281;HTU21D;63874;47.230;39.620;2022-11-14T07:44:39;7.98;68.56
75281;HTU21D;63874;47.230;39.620;2022-11-14T07:47:23;8.01;68.26
75281;HTU21D;63874;47.230;39.620;2022-11-14T07:50:08;8.06;68.30
75281;HTU21D;63874;47.230;39.620;2022-11-14T07:52:53;8.13;66.38
75281;HTU21D;63874;47.230;39.620;2022-11-14T07:55:38;8.20;64.22
75281;HTU21D;63874;47.230;39.620;2022-11-14T07:58:22;8.19;63.36
75281;HTU21D;63874;47.230;39.620;2022-11-14T08:01:09;8.14;66.36
75281;HTU21D;63874;47.230;39.620;2022-11-14T08:03:54;8.21;65.45
75281;HTU21D;63874;47.230;39.620;2022-11-14T08:06:39;8.27;63.76
75281;HTU21D;63874;47.230;39.620;2022-11-14T08:09:23;8.30;63.16
75281;HTU21D;63874;47.230;39.620;2022-11-14T08:12:07;8.31;64.42
75281;HTU21D;63874;47.230;39.620;2022-11-14T08:14:52;8.35;64.85
75281;HTU21D;63874;47.230;39.620;2022-11-14T08:17:36;8.41;64.43
75281;HTU21D;63874;47.230;39.620;2022-11-14T08:20:21;8.47;64.27
75281;HTU21D;63874;47.230;39.620;2022-11-14T08:23:06;8.57;62.27
75281;HTU21D;63874;47.230;39.620;2022-11-14T08:25:50;8.57;63.40
75281;HTU21D;63874;47.230;39.620;2022-11-14T08:28:35;8.63;63.63
75281;HTU21D;63874;47.230;39.620;2022-11-14T08:31:20;8.72;62.79
75281;HTU21D;63874;47.230;39.620;2022-11-14T08:34:04;8.85;63.12
75281;HTU21D;63874;47.230;39.620;2022-11-14T08:36:49;8.93;62.53
75281;HTU21D;63874;47.230;39.620;2022-11-14T08:39:33;9.02;60.90
75281;HTU21D;63874;47.230;39.620;2022-11-14T08:42:17;9.02;62.66
75281;HTU21D;63874;47.230;39.620;2022-11-14T08:45:02;9.08;62.99
75281;HTU21D;63874;47.230;39.620;2022-11-14T08:47:51;9.18;64.07
75281;HTU21D;63874;47.230;39.620;2022-11-14T08:50:36;9.32;63.67
75281;HTU21D;63874;47.230;39.620;2022-11-14T08:53:20;9.51;63.66
75281;HTU21D;63874;47.230;39.620;2022-11-14T08:56:04;9.72;63.99
75281;HTU21D;63874;47.230;39.620;2022-11-14T08:58:49;10.29;62.34
75281;HTU21D;63874;47.230;39.620;2022-11-14T09:01:33;11.30;60.96
75281;HTU21D;63874;47.230;39.620;2022-11-14T09:04:18;12.49;58.93
75281;HTU21D;63874;47.230;39.620;2022-11-14T09:07:02;13.88;57.24
75281;HTU21D;63874;47.230;39.620;2022-11-14T09:09:46;14.83;52.25
75281;HTU21D;63874;47.230;39.620;2022-11-14T09:12:31;15.82;53.52
75281;HTU21D;63874;47.230;39.620;2022-11-14T09:15:15;16.80;51.46
75281;HTU21D;63874;47.230;39.620;2022-11-14T09:18:00;17.84;49.52
75281;HTU21D;63874;47.230;39.620;2022-11-14T09:20:44;18.37;45.31
75281;HTU21D;63874;47.230;39.620;2022-11-14T09:23:28;18.42;45.80
75281;HTU21D;63874;47.230;39.620;2022-11-14T09:26:13;18.76;45.38
75281;HTU21D;63874;47.230;39.620;2022-11-14T09:28:57;19.50;44.43
75281;HTU21D;63874;47.230;39.620;2022-11-14T09:31:42;19.89;41.96
75281;HTU21D;63874;47.230;39.620;2022-11-14T09:34:27;20.19;40.33
75281;HTU21D;63874;47.230;39.620;2022-11-14T09:37:11;20.84;39.88
75281;HTU21D;63874;47.230;39.620;2022-11-14T09:39:56;21.67;39.46
75281;HTU21D;63874;47.230;39.620;2022-11-14T09:45:28;21.69;36.27
75281;HTU21D;63874;47.230;39.620;2022-11-14T09:48:22;21.92;35.90
75281;HTU21D;63874;47.230;39.620;2022-11-14T09:51:23;22.31;35.15
75281;HTU21D;63874;47.230;39.620;2022-11-14T09:54:24;22.51;34.33
75281;HTU21D;63874;47.230;39.620;2022-11-14T09:57:17;22.07;33.71
75281;HTU21D;63874;47.230;39.620;2022-11-14T10:00:17;22.26;34.21
75281;HTU21D;63874;47.230;39.620;2022-11-14T10:06:19;23.13;30.25
75281;HTU21D;63874;47.230;39.620;2022-11-14T10:12:42;23.68;31.83
75281;HTU21D;63874;47.230;39.620;2022-11-14T10:18:57;23.70;30.40
75281;HTU21D;63874;47.230;39.620;2022-11-14T10:30:45;23.79;28.98
75281;HTU21D;63874;47.230;39.620;2022-11-14T10:36:46;23.40;30.07
75281;HTU21D;63874;47.230;39.620;2022-11-14T10:39:36;22.95;29.45
75281;HTU21D;63874;47.230;39.620;2022-11-14T10:42:35;22.73;30.41
75281;HTU21D;63874;47.230;39.620;2022-11-14T10:45:42;22.79;30.79
75281;HTU21D;63874;47.230;39.620;2022-11-14T10:48:40;22.85;29.42
75281;HTU21D;63874;47.230;39.620;2022-11-14T10:51:38;22.44;28.44
75281;HTU21D;63874;47.230;39.620;2022-11-14T10:57:19;21.84;29.89
75281;HTU21D;63874;47.230;39.620;2022-11-14T11:00:11;20.42;30.43
75281;HTU21D;63874;47.230;39.620;2022-11-14T11:02:56;18.77;32.44
75281;HTU21D;63874;47.230;39.620;2022-11-14T11:05:51;17.44;34.05
75281;HTU21D;63874;47.230;39.620;2022-11-14T11:08:41;16.03;36.60
75281;HTU21D;63874;47.230;39.620;2022-11-14T11:11:59;14.88;38.70
75281;HTU21D;63874;47.230;39.620;2022-11-14T11:14:46;14.08;40.70
75281;HTU21D;63874;47.230;39.620;2022-11-14T11:17:30;13.16;42.72
75281;HTU21D;63874;47.230;39.620;2022-11-14T11:23:21;12.22;44.89
75281;HTU21D;63874;47.230;39.620;2022-11-14T11:26:20;12.01;45.64
75281;HTU21D;63874;47.230;39.620;2022-11-14T11:31:58;11.47;47.22
75281;HTU21D;63874;47.230;39.620;2022-11-14T11:34:42;11.24;48.05
75281;HTU21D;63874;47.230;39.620;2022-11-14T11:38:16;11.10;48.62
75281;HTU21D;63874;47.230;39.620;2022-11-14T11:40:50;10.95;49.11
75281;HTU21D;63874;47.230;39.620;2022-11-14T11:43:41;10.80;49.56
75281;HTU21D;63874;47.230;39.620;2022-11-14T11:52:42;10.62;50.62
75281;HTU21D;63874;47.230;39.620;2022-11-14T11:55:35;10.53;50.86
75281;HTU21D;63874;47.230;39.620;2022-11-14T11:58:25;10.52;51.08
75281;HTU21D;63874;47.230;39.620;2022-11-14T12:01:13;10.48;51.24
75281;HTU21D;63874;47.230;39.620;2022-11-14T12:03:59;10.43;51.50
75281;HTU21D;63874;47.230;39.620;2022-11-14T12:06:52;10.43;51.73
75281;HTU21D;63874;47.230;39.620;2022-11-14T12:09:40;10.39;51.95
75281;HTU21D;63874;47.230;39.620;2022-11-14T12:19:00;10.33;52.53
75281;HTU21D;63874;47.230;39.620;2022-11-14T12:24:55;10.18;52.98
75281;HTU21D;63874;47.230;39.620;2022-11-14T12:31:11;10.15;53.05
75281;HTU21D;63874;47.230;39.620;2022-11-14T12:34:17;10.14;52.81
75281;HTU21D;63874;47.230;39.620;2022-11-14T12:37:21;10.07;52.78
75281;HTU21D;63874;47.230;39.620;2022-11-14T12:40:11;10.04;52.97
75281;HTU21D;63874;47.230;39.620;2022-11-14T12:43:02;10.01;53.09
75281;HTU21D;63874;47.230;39.620;2022-11-14T12:45:54;9.98;53.27
75281;HTU21D;63874;47.230;39.620;2022-11-14T12:48:43;9.93;53.56
75281;HTU21D;63874;47.230;39.620;2022-11-14T13:00:36;9.75;54.29
75281;HTU21D;63874;47.230;39.620;2022-11-14T13:12:55;9.57;55.61
75281;HTU21D;63874;47.230;39.620;2022-11-14T13:16:00;9.56;55.60
75281;HTU21D;63874;47.230;39.620;2022-11-14T13:27:44;9.41;56.00
75281;HTU21D;63874;47.230;39.620;2022-11-14T13:33:53;9.36;56.16
75281;HTU21D;63874;47.230;39.620;2022-11-14T13:37:24;9.31;56.26
75281;HTU21D;63874;47.230;39.620;2022-11-14T13:49:28;9.08;56.85
75281;HTU21D;63874;47.230;39.620;2022-11-14T13:52:16;9.03;56.98
75281;HTU21D;63874;47.230;39.620;2022-11-14T13:55:01;8.95;57.16
75281;HTU21D;63874;47.230;39.620;2022-11-14T14:00:41;8.86;57.27
75281;HTU21D;63874;47.230;39.620;2022-11-14T14:06:45;8.71;57.73
75281;HTU21D;63874;47.230;39.620;2022-11-14T14:12:40;8.62;57.97
75281;HTU21D;63874;47.230;39.620;2022-11-14T14:15:29;8.56;58.09
75281;HTU21D;63874;47.230;39.620;2022-11-14T14:18:37;8.51;58.25
75281;HTU21D;63874;47.230;39.620;2022-11-14T14:22:00;8.49;58.33
75281;HTU21D;63874;47.230;39.620;2022-11-14T14:25:03;8.42;58.54
75281;HTU21D;63874;47.230;39.620;2022-11-14T14:31:19;8.42;58.80
75281;HTU21D;63874;47.230;39.620;2022-11-14T14:34:32;8.45;58.79
75281;HTU21D;63874;47.230;39.620;2022-11-14T14:37:24;8.52;58.72
75281;HTU21D;63874;47.230;39.620;2022-11-14T14:40:22;8.57;58.65
75281;HTU21D;63874;47.230;39.620;2022-11-14T14:43:18;8.63;58.54
75281;HTU21D;63874;47.230;39.620;2022-11-14T14:46:06;8.61;58.77
75281;HTU21D;63874;47.230;39.620;2022-11-14T14:48:50;8.63;58.73
75281;HTU21D;63874;47.230;39.620;2022-11-14T14:51:36;8.55;58.90
75281;HTU21D;63874;47.230;39.620;2022-11-14T14:54:26;8.56;58.93
75281;HTU21D;63874;47.230;39.620;2022-11-14T14:57:18;8.56;58.90
75281;HTU21D;63874;47.230;39.620;2022-11-14T15:00:18;8.57;58.77
75281;HTU21D;63874;47.230;39.620;2022-11-14T15:03:03;8.56;58.85
75281;HTU21D;63874;47.230;39.620;2022-11-14T15:05:47;8.57;58.84
75281;HTU21D;63874;47.230;39.620;2022-11-14T15:08:37;8.58;58.87
75281;HTU21D;63874;47.230;39.620;2022-11-14T15:11:22;8.52;59.08
75281;HTU21D;63874;47.230;39.620;2022-11-14T15:14:28;8.48;59.16
75281;HTU21D;63874;47.230;39.620;2022-11-14T15:17:13;8.43;59.32
75281;HTU21D;63874;47.230;39.620;2022-11-14T15:19:58;8.36;59.45
75281;HTU21D;63874;47.230;39.620;2022-11-14T15:23:21;8.24;59.67
75281;HTU21D;63874;47.230;39.620;2022-11-14T15:26:20;8.17;59.80
75281;HTU21D;63874;47.230;39.620;2022-11-14T15:29:16;8.07;59.92
75281;HTU21D;63874;47.230;39.620;2022-11-14T15:32:01;8.03;60.22
75281;HTU21D;63874;47.230;39.620;2022-11-14T15:41:16;7.87;60.68
75281;HTU21D;63874;47.230;39.620;2022-11-14T15:44:02;7.86;60.82
75281;HTU21D;63874;47.230;39.620;2022-11-14T15:46:49;7.85;60.70
75281;HTU21D;63874;47.230;39.620;2022-11-14T15:49:34;7.83;60.84
75281;HTU21D;63874;47.230;39.620;2022-11-14T15:52:23;7.81;60.94
75281;HTU21D;63874;47.230;39.620;2022-11-14T15:55:13;7.81;60.96
75281;HTU21D;63874;47.230;39.620;2022-11-14T15:57:57;7.84;60.85
75281;HTU21D;63874;47.230;39.620;2022-11-14T16:00:43;7.79;60.89
75281;HTU21D;63874;47.230;39.620;2022-11-14T16:03:28;7.75;60.98
75281;HTU21D;63874;47.230;39.620;2022-11-14T16:06:13;7.71;61.13
75281;HTU21D;63874;47.230;39.620;2022-11-14T16:08:57;7.70;61.19
75281;HTU21D;63874;47.230;39.620;2022-11-14T16:11:42;7.68;61.21
75281;HTU21D;63874;47.230;39.620;2022-11-14T16:14:27;7.62;61.34
75281;HTU21D;63874;47.230;39.620;2022-11-14T16:17:15;7.56;61.41
75281;HTU21D;63874;47.230;39.620;2022-11-14T16:20:02;7.49;61.55
75281;HTU21D;63874;47.230;39.620;2022-11-14T16:22:49;7.37;61.85
75281;HTU21D;63874;47.230;39.620;2022-11-14T16:25:36;7.27;62.06
75281;HTU21D;63874;47.230;39.620;2022-11-14T16:28:20;7.25;62.23
75281;HTU21D;63874;47.230;39.620;2022-11-14T16:31:12;7.24;62.32
75281;HTU21D;63874;47.230;39.620;2022-11-14T16:33:56;7.20;62.39
75281;HTU21D;63874;47.230;39.620;2022-11-14T16:36:41;7.18;62.53
75281;HTU21D;63874;47.230;39.620;2022-11-14T16:39:29;7.15;62.60
75281;HTU21D;63874;47.230;39.620;2022-11-14T16:42:13;7.19;62.61
75281;HTU21D;63874;47.230;39.620;2022-11-14T16:45:01;7.19;62.71
75281;HTU21D;63874;47.230;39.620;2022-11-14T16:47:46;7.15;62.71
75281;HTU21D;63874;47.230;39.620;2022-11-14T16:50:31;7.11;62.89
75281;HTU21D;63874;47.230;39.620;2022-11-14T16:53:15;7.05;63.05
75281;HTU21D;63874;47.230;39.620;2022-11-14T16:55:59;6.98;63.11
75281;HTU21D;63874;47.230;39.620;2022-11-14T16:58:44;6.95;63.30
75281;HTU21D;63874;47.230;39.620;2022-11-14T17:01:28;6.95;63.33
75281;HTU21D;63874;47.230;39.620;2022-11-14T17:04:13;6.98;63.28
75281;HTU21D;63874;47.230;39.620;2022-11-14T17:06:57;6.99;63.26
75281;HTU21D;63874;47.230;39.620;2022-11-14T17:09:42;6.98;63.06
75281;HTU21D;63874;47.230;39.620;2022-11-14T17:12:27;6.90;63.05
75281;HTU21D;63874;47.230;39.620;2022-11-14T17:15:12;6.81;63.09
75281;HTU21D;63874;47.230;39.620;2022-11-14T17:17:56;6.74;63.19
75281;HTU21D;63874;47.230;39.620;2022-11-14T17:20:41;6.75;63.07
75281;HTU21D;63874;47.230;39.620;2022-11-14T17:23:26;6.74;63.02
75281;HTU21D;63874;47.230;39.620;2022-11-14T17:26:12;6.71;63.03
75281;HTU21D;63874;47.230;39.620;2022-11-14T17:28:56;6.69;62.98
75281;HTU21D;63874;47.230;39.620;2022-11-14T17:31:41;6.71;62.66
75281;HTU21D;63874;47.230;39.620;2022-11-14T17:34:26;6.71;62.46
75281;HTU21D;63874;47.230;39.620;2022-11-14T17:37:10;6.69;62.46
75281;HTU21D;63874;47.230;39.620;2022-11-14T17:39:57;6.64;62.45
75281;HTU21D;63874;47.230;39.620;2022-11-14T17:42:42;6.59;62.44
75281;HTU21D;63874;47.230;39.620;2022-11-14T17:45:26;6.56;62.39
75281;HTU21D;63874;47.230;39.620;2022-11-14T17:48:11;6.55;62.11
75281;HTU21D;63874;47.230;39.620;2022-11-14T17:51:02;6.53;61.99
75281;HTU21D;63874;47.230;39.620;2022-11-14T17:53:46;6.50;61.79
75281;HTU21D;63874;47.230;39.620;2022-11-14T17:56:31;6.48;61.73
75281;HTU21D;63874;47.230;39.620;2022-11-14T17:59:15;6.48;61.50
75281;HTU21D;63874;47.230;39.620;2022-11-14T18:02:03;6.45;61.47
75281;HTU21D;63874;47.230;39.620;2022-11-14T18:04:48;6.42;61.36
75281;HTU21D;63874;47.230;39.620;2022-11-14T18:07:32;6.39;61.26
75281;HTU21D;63874;47.230;39.620;2022-11-14T18:10:17;6.36;61.34
75281;HTU21D;63874;47.230;39.620;2022-11-14T18:13:02;6.37;61.03
75281;HTU21D;63874;47.230;39.620;2022-11-14T18:15:48;6.34;61.15
75281;HTU21D;63874;47.230;39.620;2022-11-14T18:18:34;6.28;61.31
75281;HTU21D;63874;47.230;39.620;2022-11-14T18:21:21;6.25;61.28
75281;HTU21D;63874;47.230;39.620;2022-11-14T18:24:14;6.22;61.20
75281;HTU21D;63874;47.230;39.620;2022-11-14T18:26:58;6.20;61.08
75281;HTU21D;63874;47.230;39.620;2022-11-14T18:29:42;6.14;61.17
75281;HTU21D;63874;47.230;39.620;2022-11-14T18:32:27;6.11;61.19
75281;HTU21D;63874;47.230;39.620;2022-11-14T18:35:12;6.06;61.31
75281;HTU21D;63874;47.230;39.620;2022-11-14T18:37:56;6.04;61.28
75281;HTU21D;63874;47.230;39.620;2022-11-14T18:40:42;5.98;61.46
75281;HTU21D;63874;47.230;39.620;2022-11-14T18:43:27;5.98;61.52
75281;HTU21D;63874;47.230;39.620;2022-11-14T18:46:19;6.00;61.30
75281;HTU21D;63874;47.230;39.620;2022-11-14T18:49:06;6.02;61.39
75281;HTU21D;63874;47.230;39.620;2022-11-14T18:51:51;6.07;61.21
75281;HTU21D;63874;47.230;39.620;2022-11-14T18:54:36;6.09;61.06
75281;HTU21D;63874;47.230;39.620;2022-11-14T18:57:21;6.11;60.81
75281;HTU21D;63874;47.230;39.620;2022-11-14T19:00:06;6.10;60.75
75281;HTU21D;63874;47.230;39.620;2022-11-14T19:02:50;6.07;60.92
75281;HTU21D;63874;47.230;39.620;2022-11-14T19:05:35;6.08;61.00
75281;HTU21D;63874;47.230;39.620;2022-11-14T19:08:19;6.09;60.93
75281;HTU21D;63874;47.230;39.620;2022-11-14T19:11:07;6.06;60.93